Tiempo atmosférico en la estación meteorológica de Isaba/Izaba, Navarra (820 m.)



Fecha
DESCASC
Temp. máxima en grados centígrados (hora)
DESCASC
Temp. mínima en grados centígrados (hora)
DESCASC
Temp. media en grados centígrados
DESCASC
Racha de viento máxima en m/sg (hora)
DESCASC
Velocidad máxima media en intervalos de 10 minutos(hora)
DESCASC
Precipitaciones diarias en mm
DESCASC
Precipitaciones de 00:00 a 06:00 en mm
DESCASC
Precipitaciones de 06:00 a 12:00 en mm
DESCASC
Precipitaciones de 12:00 a 18:00 en mm
DESCASC
Precipitaciones de 18:00 a 24:00 en mm
DESCASC
05-04-2020 16.6 (17:10) 6.1 (07:50) 11.4 15.28 (12:50) 8.33 (12:50) 0 0 0 0 0
04-04-2020 17.3 (16:20) -2.1 (07:50) 7.6 10.83 (15:00) 5.83 (16:50) 0 0 0 0 0
03-04-2020 14.5 (15:20) -0.6 (04:30) 6.9 12.22 (11:30) 8.61 (11:30) 0 0 0 0 0
02-04-2020 13.1 (15:20) 4 (00:00) 8.6 13.61 (10:50) 7.78 (15:40) 0.6 0.4 0 0 0.2
01-04-2020 10.1 (13:00) 3.5 (00:00) 6.8 6.11 (14:20) 3.61 (14:20) 11.2 0.2 0 6.4 4.6
31-03-2020 8.5 (16:10) -1 (-00:0) 3.8 5.83 (16:30) 3.06 (16:40) 9.8 2.6 5.6 1.2 0.4
30-03-2020 7.6 (16:10) -1.4 (-00:0) 3.1 13.33 (12:00) 8.33 (11:10) 0 0 0 0 0
29-03-2020 12.2 (15:10) -0.7 (-00:0) 5.7 16.67 (14:50) 11.11 (14:50) 0 0 0 0 0
28-03-2020 16.7 (12:40) -2.2 (-00:0) 7.3 8.89 (16:30) 6.39 (16:30) 0 0 0 0 0
27-03-2020 14 (14:00) -3.8 (-00:0) 5.1 10.83 (16:20) 6.39 (17:00) 0 0 0 0 0
26-03-2020 8.9 (15:40) -1.3 (-00:0) 3.8 15.28 (13:30) 8.33 (16:10) 0 0 0 0 0
25-03-2020 12.8 (14:30) -0.4 (00:00) 6.2 9.17 (18:00) 6.67 (17:40) 0 0 0 0 0
24-03-2020 16.8 (13:20) 2.4 (00:00) 9.6 13.33 (15:40) 9.17 (15:00) 0 0 0 0 0
23-03-2020 14.4 (16:10) 5.8 (00:00) 10.1 9.44 (17:10) 3.89 (16:20) 7.2 1 2 1.2 3
22-03-2020 16.3 (12:20) 1.9 (02:50) 9.1 9.72 (17:30) 6.67 (17:40) 1.6 1.4 0 0 0.2
21-03-2020 15.5 (16:00) 0.5 (00:00) 8 8.06 (12:30) 4.72 (12:40) 0 0 0 0 0
20-03-2020 15.8 (14:30) 1.1 (00:00) 8.5 9.44 (17:30) 5 (15:00) 0 0 0 0 0
19-03-2020 17.8 (15:30) 3.6 (00:00) 10.7 8.61 (13:50) 5 (13:10) 0 0 0 0 0
18-03-2020 16.4 (13:40) 3 (00:00) 9.7 6.67 (13:50) 4.17 (15:00) 0 0 0 0 0
17-03-2020 11.9 (17:00) 2.4 (00:00) 7.1 5 (17:30) 2.22 (17:30) 0 0 0 0 0
16-03-2020 6.7 (17:00) 2.4 (00:00) 4.5 8.33 (04:40) 5.28 (04:40) 35.8 28 7.6 0 0.2
15-03-2020 18.3 (13:10) -2.4 (-00:0) 7.9 20 (22:10) 7.78 (22:10) 21 0 0 0 21
14-03-2020 17.8 (15:40) -0.2 (00:00) 8.8 8.06 (11:10) 5.28 (16:40) 0 0 0 0 0
13-03-2020 10.2 (13:40) 6.1 (06:20) 8.1 12.5 (08:10) 5.83 (07:30) 0.4 0.4 0 0 0
12-03-2020 22.7 (13:10) 4.1 (00:00) 13.4 13.89 (17:10) 9.17 (17:00) 1.8 0 0 0 1.8
11-03-2020 22.4 (14:30) 1.7 (00:00) 12 6.39 (15:10) 3.61 (14:50) 0 0 0 0 0
10-03-2020 18.8 (14:20) 2.6 (00:00) 10.7 12.5 (05:10) 6.94 (15:40) 0 0 0 0 0

Gráficas

Temp. máximas Temp. mínimas Temp. medias Precipitaciones Rachas de viento máximas Velocidades máximas media en intervalos de 10 minutos

Datos horarios

Fecha y hora oficial Temperatura (ºC) Velocidad del viento (km/h) Dirección del viento Racha (km/h) Dirección de racha Precipitación (mm) Presión (hPa) Tendencia (hPa) Humedad (%)
2020-04-08 23:00:00 8.6 2 Norte 8 Nordeste 0 -- -- 100
2020-04-08 22:00:00 8.8 0 Calma 12 Nordeste 0 -- -- 100
2020-04-08 21:00:00 9.2 3 Norte 8 Norte 0 -- -- 100
2020-04-08 20:00:00 10.7 0 Calma 18 Norte 0 -- -- 99
2020-04-08 19:00:00 10.1 9 Norte 28 Norte 6.4 -- -- 99
2020-04-08 18:00:00 13.2 15 Nordeste 39 Nordeste 0 -- -- 76
2020-04-08 17:00:00 17.9 12 Sudoeste 24 Sudoeste 0 -- -- 55
2020-04-08 16:00:00 18.2 14 Sur 25 Sur 0 -- -- 52
2020-04-08 15:00:00 17.4 13 Sur 25 Sudoeste 0 -- -- 60
2020-04-08 14:00:00 16.3 12 Sur 22 Sur 0 -- -- 63
2020-04-08 13:00:00 14.5 13 Sur 24 Sudoeste 0 -- -- 71
2020-04-08 12:00:00 13.6 14 Sur 27 Sudoeste 0 -- -- 73
2020-04-08 11:00:00 12.8 13 Sur 26 Sur 0 -- -- 76
2020-04-08 10:00:00 10.5 2 Sudeste 3 Sudeste 0 -- -- 97
2020-04-08 09:00:00 6.5 0 Calma 4 Norte 0 -- -- 100
2020-04-08 08:00:00 6 0 Calma 3 Nordeste 0 -- -- 100
2020-04-08 07:00:00 6.4 0 Calma 5 Este 0 -- -- 100
2020-04-08 06:00:00 6.5 3 Noroeste 4 Norte 0 -- -- 100
2020-04-08 05:00:00 6.6 0 Calma 3 Noroeste 0 -- -- 100
2020-04-08 04:00:00 6.8 0 Calma 5 Noroeste 0 -- -- 100
2020-04-08 03:00:00 7.3 0 Calma 8 Noroeste 0 -- -- 100
2020-04-08 02:00:00 7.2 4 Norte 8 Norte 0 -- -- 100
2020-04-08 01:00:00 7.7 0 Calma 9 Noroeste 0 -- -- 100
2020-04-08 00:00:00 7.6 3 Sudoeste 9 Sudeste 0 -- -- 99
2020-04-07 23:00:00 8.7 4 Sudoeste 11 Sudoeste 0 -- -- 98
2020-04-07 22:00:00 9.9 2 Sur 13 Sur 0 -- -- 93
2020-04-07 21:00:00 10.6 7 Sur 23 Sudoeste 0 -- -- 91
2020-04-07 20:00:00 11.4 7 Sudoeste 28 Sudoeste 0 -- -- 88
2020-04-07 19:00:00 12.5 8 Sudoeste 27 Sudoeste 0 -- -- 85
2020-04-07 18:00:00 11.3 14 Sur 26 Sur 0 -- -- 91
2020-04-07 17:00:00 11.4 13 Sudoeste 25 Sudoeste 0 -- -- 89
2020-04-07 16:00:00 11.4 12 Sudoeste 24 Sur 0.8 -- -- 92
2020-04-07 15:00:00 10.9 14 Sudoeste 24 Sur 1.2 -- -- 97
2020-04-07 14:00:00 9.6 13 Sur 29 Sudeste 1 -- -- 97
2020-04-07 13:00:00 9.7 15 Sur 28 Sur 0 -- -- 93
2020-04-07 12:00:00 9.2 13 Sudoeste 27 Sur 0.2 -- -- 92
2020-04-07 11:00:00 10.1 15 Sur 31 Sudoeste 0 -- -- 90
2020-04-07 10:00:00 10 9 Sudoeste 21 Sudoeste 0 -- -- 94
2020-04-07 09:00:00 8.7 3 Oeste 11 Sudoeste 0.2 -- -- 100
2020-04-07 08:00:00 8.3 3 Sur 4 Sur 0 -- -- 100
2020-04-07 07:00:00 8.5 0 Calma 9 Noroeste 0 -- -- 100
2020-04-07 06:00:00 8.5 0 Calma 8 Sudoeste 0 -- -- 100
2020-04-07 05:00:00 8.8 4 Noroeste 13 Sur 0 -- -- 99
2020-04-07 04:00:00 9.1 4 Oeste 16 Sudoeste 0 -- -- 98
2020-04-07 03:00:00 9.1 6 Sudoeste 14 Sudoeste 0 -- -- 99
2020-04-07 02:00:00 9.2 4 Sudoeste 18 Sudoeste 0.2 -- -- 100
2020-04-07 01:00:00 9.4 8 Sudoeste 17 Sudoeste 0.2 -- -- 100
2020-04-07 00:00:00 9.6 3 Noroeste 6 Norte 0 -- -- 100
2020-04-06 23:00:00 9.7 0 Calma 4 Sur 0 -- -- 99
2020-04-06 22:00:00 9.8 0 Calma 6 Oeste 0 -- -- 99
2020-04-06 21:00:00 10.5 3 Oeste 18 Sudoeste 1.4 -- -- 97
2020-04-06 20:00:00 11.6 10 Sudoeste 14 Sur 0 -- -- 92
2020-04-06 19:00:00 12.3 5 Sudoeste 13 Sudoeste 0 -- -- 88
2020-04-06 18:00:00 11.9 5 Sur 21 Sudoeste 0.2 -- -- 91
2020-04-06 17:00:00 13 12 Sudoeste 24 Sudoeste 0 -- -- 76
2020-04-06 16:00:00 13.2 10 Sur 18 Sur 0 -- -- 83
2020-04-06 15:00:00 12.1 10 Sudoeste 22 Sudoeste 0 -- -- 83
2020-04-06 14:00:00 12.6 10 Sur 23 Sur 0 -- -- 84
2020-04-06 13:00:00 10.5 14 Sudoeste 21 Sur 0.6 -- -- 96
2020-04-06 12:00:00 9.2 13 Sudoeste 23 Sur 0.2 -- -- 96
2020-04-06 11:00:00 9.5 5 Sudoeste 20 Sudoeste 0.2 -- -- 96
2020-04-06 10:00:00 8.4 12 Sur 26 Sudoeste 0.4 -- -- 96
2020-04-06 09:00:00 7.8 2 Nordeste 8 Sudoeste 0.2 -- -- 100
2020-04-06 08:00:00 6.9 2 Oeste 6 Sudoeste 1.2 -- -- 100
2020-04-06 07:00:00 6.6 0 Calma 6 Sudoeste 1.6 -- -- 99
2020-04-06 06:00:00 6.2 0 Calma 6 Noroeste 1.2 -- -- 98
2020-04-06 05:00:00 6.5 0 Calma 9 Noroeste 0.4 -- -- 91
2020-04-06 04:00:00 6.9 0 Calma 8 Noroeste 0 -- -- 82
2020-04-06 03:00:00 7 0 Calma 10 Norte 0 -- -- 81
2020-04-06 02:00:00 7 4 Noroeste 10 Noroeste 0 -- -- 80
2020-04-06 01:00:00 7.8 4 Noroeste 25 Sudoeste 0 -- -- 74
2020-04-06 00:00:00 9.9 15 Sudoeste 26 Sudoeste 0 -- -- 65
2020-04-05 23:00:00 10.8 12 Sudoeste 21 Sur 0 -- -- 62
2020-04-05 22:00:00 11.8 13 Sur 22 Sur 0 -- -- 58
2020-04-05 21:00:00 12.4 10 Sur 21 Sur 0 -- -- 56
2020-04-05 20:00:00 14 9 Sur 28 Sudoeste 0 -- -- 48
2020-04-05 19:00:00 15.6 10 Sudeste 37 Sur 0 -- -- 44
2020-04-05 18:00:00 15.2 14 Sudoeste 44 Sur 0 -- -- 45
2020-04-05 17:00:00 16.2 14 Sudoeste 44 Sudoeste 0 -- -- 42
2020-04-05 16:00:00 14.6 18 Sudoeste 39 Oeste 0 -- -- 43
2020-04-05 15:00:00 15.3 14 Sudoeste 44 Sur 0 -- -- 41
2020-04-05 14:00:00 16.2 20 Sudoeste 47 Sudoeste 0 -- -- 38
2020-04-05 13:00:00 14 23 Sudoeste 55 Sudoeste 0 -- -- 36
2020-04-05 12:00:00 14 21 Sudoeste 45 Sudoeste 0 -- -- 35
2020-04-05 11:00:00 12 21 Sudoeste 39 Sudoeste 0 -- -- 42
2020-04-05 10:00:00 10.8 18 Sudoeste 38 Sur 0 -- -- 50
2020-04-05 09:00:00 8.3 22 Sudoeste 40 Sudoeste 0 -- -- 60
2020-04-05 08:00:00 6.4 15 Sur 30 Sur 0 -- -- 67
2020-04-05 07:00:00 6.3 19 Sur 31 Sudoeste 0 -- -- 69
2020-04-05 06:00:00 7.5 12 Sur 35 Sudoeste 0 -- -- 62
2020-04-05 05:00:00 8.7 20 Sudoeste 46 Sudoeste 0 -- -- 60
2020-04-05 04:00:00 8.7 20 Sudoeste 46 Sudoeste 0 -- -- 65
2020-04-05 03:00:00 9.2 25 Sudoeste 42 Sudoeste 0 -- -- 66
2020-04-05 02:00:00 9.4 21 Sudoeste 37 Sudoeste 0 -- -- 68
2020-04-05 01:00:00 6.5 3 Noroeste 19 Sur 0 -- -- 81
2020-04-05 00:00:00 6.9 4 Noroeste 24 Sudoeste 0 -- -- 78
2020-04-04 23:00:00 6.6 2 Norte 9 Noroeste 0 -- -- 81
2020-04-04 22:00:00 8.4 0 Calma 11 Sudoeste 0 -- -- 72
2020-04-04 21:00:00 11 6 Sur 22 Sudoeste 0 -- -- 57
2020-04-04 20:00:00 12.9 8 Sudoeste 28 Sur 0 -- -- 48
2020-04-04 19:00:00 14.7 12 Sudoeste 33 Sudoeste 0 -- -- 46
2020-04-04 18:00:00 16.3 12 Sudoeste 32 Sudoeste 0 -- -- 43
2020-04-04 17:00:00 16.6 18 Sudoeste 39 Sudoeste 0 -- -- 44
2020-04-04 16:00:00 16.8 17 Sudoeste 39 Sudoeste 0 -- -- 47
2020-04-04 15:00:00 16.3 19 Sudoeste 39 Oeste 0 -- -- 49
2020-04-04 14:00:00 15.5 17 Sudoeste 34 Sudoeste 0 -- -- 53
2020-04-04 13:00:00 14.6 15 Sudoeste 35 Sudoeste 0 -- -- 51
2020-04-04 12:00:00 12.7 14 Sur 26 Sudoeste 0 -- -- 57
2020-04-04 11:00:00 9.5 2 Este 5 Sudeste 0 -- -- 67
2020-04-04 10:00:00 4.4 0 Calma 4 Noroeste 0 -- -- 96
2020-04-04 09:00:00 -1.9 2 Norte 7 Norte 0 -- -- 100
2020-04-04 08:00:00 -2 4 Norte 8 Noroeste 0 -- -- 100
2020-04-04 07:00:00 -1.9 4 Norte 9 Norte 0 -- -- 100
2020-04-04 06:00:00 -1.8 4 Norte 9 Norte 0 -- -- 100
2020-04-04 05:00:00 -1.6 4 Norte 9 Norte 0 -- -- 99
2020-04-04 04:00:00 -1.3 3 Norte 8 Norte 0 -- -- 99
2020-04-04 03:00:00 -0.8 4 Norte 10 Norte 0 -- -- 98
2020-04-04 02:00:00 0 6 Norte 10 Noroeste 0 -- -- 97
2020-04-04 01:00:00 0.7 4 Norte 12 Noroeste 0 -- -- 96
2020-04-04 00:00:00 1.7 5 Norte 9 Norte 0 -- -- 94
2020-04-03 23:00:00 2.9 3 Nordeste 9 Nordeste 0 -- -- 91
2020-04-03 22:00:00 4.2 2 Norte 6 Noroeste 0 -- -- 85
2020-04-03 21:00:00 6.3 3 Norte 23 Este 0 -- -- 73
2020-04-03 20:00:00 8.3 14 Nordeste 29 Nordeste 0 -- -- 63
2020-04-03 19:00:00 10.6 20 Nordeste 33 Nordeste 0 -- -- 56
2020-04-03 18:00:00 12 22 Nordeste 34 Este 0 -- -- 53
2020-04-03 17:00:00 12.5 25 Nordeste 40 Nordeste 0 -- -- 50
2020-04-03 16:00:00 13.8 26 Nordeste 35 Nordeste 0 -- -- 47
2020-04-03 15:00:00 14.3 22 Nordeste 32 Nordeste 0 -- -- 43
2020-04-03 14:00:00 13.3 18 Nordeste 32 Nordeste 0 -- -- 46
2020-04-03 13:00:00 11.5 25 Nordeste 42 Nordeste 0 -- -- 51
2020-04-03 12:00:00 9.8 27 Nordeste 44 Nordeste 0 -- -- 52
2020-04-03 11:00:00 8 29 Nordeste 40 Nordeste 0 -- -- 58
2020-04-03 10:00:00 6.8 15 Nordeste 35 Este 0 -- -- 63
2020-04-03 09:00:00 3.3 13 Norte 29 Norte 0 -- -- 77
2020-04-03 08:00:00 3.2 10 Nordeste 29 Nordeste 0 -- -- 85
2020-04-03 07:00:00 3.3 14 Nordeste 32 Nordeste 0 -- -- 85
2020-04-03 06:00:00 3.1 20 Nordeste 36 Nordeste 0 -- -- 81
2020-04-03 05:00:00 -0.2 6 Norte 14 Norte 0 -- -- 89
2020-04-03 04:00:00 -0.4 10 Norte 29 Nordeste 0 -- -- 87
2020-04-03 03:00:00 0.7 15 Norte 23 Norte 0 -- -- 80
2020-04-03 02:00:00 1.7 6 Norte 30 Norte 0 -- -- 74
2020-04-03 01:00:00 3.4 16 Norte 32 Norte 0 -- -- 67
2020-04-03 00:00:00 4 15 Norte 34 Noroeste 0 -- -- 73
2020-04-02 23:00:00 5.1 21 Norte 40 Norte 0 -- -- 78
2020-04-02 22:00:00 6.2 19 Norte 41 Norte 0 -- -- 78
2020-04-02 21:00:00 6.5 15 Nordeste 36 Norte 0 -- -- 82
2020-04-02 20:00:00 6.6 15 Nordeste 30 Nordeste 0.2 -- -- 86
2020-04-02 19:00:00 8.4 17 Norte 28 Noroeste 0 -- -- 73
2020-04-02 18:00:00 8.9 14 Nordeste 34 Nordeste 0 -- -- 71
2020-04-02 17:00:00 9.6 12 Nordeste 45 Nordeste 0 -- -- 68
2020-04-02 16:00:00 11.2 24 Nordeste 47 Este 0 -- -- 57
2020-04-02 15:00:00 11.1 15 Nordeste 37 Noroeste 0 -- -- 63
2020-04-02 14:00:00 11 17 Norte 47 Este 0 -- -- 62
2020-04-02 13:00:00 12.4 15 Nordeste 44 Nordeste 0 -- -- 57
2020-04-02 12:00:00 11.8 14 Nordeste 49 Noroeste 0 -- -- 59
2020-04-02 11:00:00 9.4 19 Norte 49 Norte 0 -- -- 71
2020-04-02 10:00:00 8.4 12 Norte 31 Norte 0 -- -- 84
2020-04-02 09:00:00 5.3 14 Norte 34 Noroeste 0 -- -- 98
2020-04-02 08:00:00 5.1 14 Noroeste 26 Norte 0 -- -- 100
2020-04-02 07:00:00 4.7 7 Norte 16 Nordeste 0 -- -- 100
2020-04-02 06:00:00 5.3 0 Calma 3 Este 0 -- -- 100
2020-04-02 05:00:00 5.7 0 Calma 2 Sudeste 0 -- -- 100
2020-04-02 04:00:00 5.6 0 Calma 3 Sudoeste 0 -- -- 100
2020-04-02 03:00:00 5.7 2 Sur 4 Sur 0 -- -- 100
2020-04-02 02:00:00 5.8 2 Sur 5 Sur 0.2 -- -- 100
2020-04-02 01:00:00 5.9 0 Calma 3 Noroeste 0.2 -- -- 100
2020-04-02 00:00:00 5.9 0 Calma 2 Noroeste 2 -- -- 100
2020-04-01 23:00:00 6 0 Calma 2 Oeste 0.8 -- -- 100
2020-04-01 22:00:00 6 0 Calma 6 Nordeste 0.4 -- -- 100
2020-04-01 21:00:00 6.3 4 Nordeste 11 Nordeste 0.2 -- -- 100
2020-04-01 20:00:00 6.8 2 Norte 4 Noroeste 0 -- -- 99
2020-04-01 19:00:00 7.5 0 Calma 2 Sur 1.2 -- -- 98
2020-04-01 18:00:00 7.6 3 Sur 7 Sudoeste 1 -- -- 96
2020-04-01 17:00:00 8 2 Sur 9 Sur 2 -- -- 97
2020-04-01 16:00:00 7.8 4 Sur 15 Sur 2 -- -- 96
2020-04-01 15:00:00 8.4 10 Sudoeste 22 Sudoeste 1.4 -- -- 90
2020-04-01 14:00:00 9.7 11 Sur 20 Sudoeste 0 -- -- 79
2020-04-01 13:00:00 10.1 10 Sur 19 Sudoeste 0 -- -- 80
2020-04-01 12:00:00 9.1 3 Sudeste 10 Sur 0 -- -- 93
2020-04-01 11:00:00 7.7 0 Calma 4 Nordeste 0 -- -- 98
2020-04-01 10:00:00 6 0 Calma 8 Nordeste 0 -- -- 100
2020-04-01 09:00:00 4.5 4 Nordeste 12 Norte 0 -- -- 100
2020-04-01 08:00:00 3.7 0 Calma 5 Noroeste 0 -- -- 100
2020-04-01 07:00:00 3.8 3 Norte 5 Norte 0 -- -- 100
2020-04-01 06:00:00 4.1 3 Noroeste 9 Norte 0 -- -- 100
2020-04-01 05:00:00 4.8 4 Norte 13 Norte 0 -- -- 100
2020-04-01 04:00:00 4.6 4 Noroeste 12 Norte 0 -- -- 100
2020-04-01 03:00:00 4.7 7 Norte 13 Norte 0 -- -- 100
2020-04-01 02:00:00 4.9 3 Norte 7 Norte 0.2 -- -- 100
2020-04-01 01:00:00 4.9 0 Calma 3 Sur 0 -- -- 100
2020-04-01 00:00:00 5 0 Calma 2 Noroeste 0 -- -- 100
2020-03-31 23:00:00 5.2 0 Calma 3 Noroeste 0 -- -- 100
2020-03-31 22:00:00 5.4 0 Calma 3 Sur 0 -- -- 100
2020-03-31 21:00:00 6.1 0 Calma 3 Sur 0 -- -- 98
2020-03-31 20:00:00 6.9 0 Calma 8 Sur 0.2 -- -- 95
2020-03-31 19:00:00 7.2 0 Calma 8 Sudoeste 0.2 -- -- 96
2020-03-31 18:00:00 7 5 Sur 21 Sudoeste 0.8 -- -- 91
2020-03-31 17:00:00 7.7 9 Sur 21 Sur 0.2 -- -- 90
2020-03-31 16:00:00 8.3 0 Calma 4 Sur 0.2 -- -- 92
2020-03-31 15:00:00 7.7 0 Calma 3 Noroeste 0 -- -- 91
2020-03-31 14:00:00 6.1 0 Calma 5 Este 0 -- -- 91
2020-03-31 13:00:00 5.4 2 Sudeste 5 Nordeste 0 -- -- 89
2020-03-31 12:00:00 3.8 0 Calma 4 Este 0 -- -- 92
2020-03-31 11:00:00 2.3 0 Calma 5 Nordeste 0.4 -- -- 98
2020-03-31 10:00:00 0.7 2 Nordeste 5 Norte 1 -- -- 99
2020-03-31 09:00:00 0.1 0 Calma 5 Nordeste 0.8 -- -- 99
2020-03-31 08:00:00 -0.2 3 Norte 9 Nordeste 2 -- -- 99
2020-03-31 07:00:00 -0.7 4 Nordeste 6 Nordeste 1.4 -- -- 99
2020-03-31 06:00:00 -0.9 2 Norte 5 Nordeste 1.2 -- -- 98
2020-03-31 05:00:00 -0.8 2 Norte 5 Nordeste 0.8 -- -- 97
2020-03-31 04:00:00 -0.8 0 Calma 2 Norte 0.4 -- -- 96
2020-03-31 03:00:00 -0.9 0 Calma 3 Noroeste 0.2 -- -- 94
2020-03-31 02:00:00 -1 0 Calma 7 Este 0 -- -- 92
2020-03-31 01:00:00 0.3 4 Este 9 Nordeste 0 -- -- 76
2020-03-31 00:00:00 0.2 3 Noroeste 4 Norte 0 -- -- 73
2020-03-30 23:00:00 0 0 Calma 10 Nordeste 0 -- -- 72
2020-03-30 22:00:00 -0.1 5 Nordeste 13 Este 0 -- -- 69
2020-03-30 21:00:00 0.3 12 Nordeste 26 Nordeste 0 -- -- 67
2020-03-30 20:00:00 0.8 14 Nordeste 29 Nordeste 0 -- -- 65
2020-03-30 19:00:00 1.7 19 Nordeste 39 Nordeste 0 -- -- 62
2020-03-30 18:00:00 2.7 27 Nordeste 39 Nordeste 0 -- -- 58
2020-03-30 17:00:00 5.6 22 Nordeste 36 Nordeste 0 -- -- 47
2020-03-30 16:00:00 7.2 16 Norte 35 Norte 0 -- -- 41
2020-03-30 15:00:00 6.1 19 Norte 37 Nordeste 0 -- -- 40
2020-03-30 14:00:00 5.5 20 Nordeste 42 Nordeste 0 -- -- 40
2020-03-30 13:00:00 4.7 19 Nordeste 43 Nordeste 0 -- -- 46
2020-03-30 12:00:00 4 24 Nordeste 48 Nordeste 0 -- -- 45
2020-03-30 11:00:00 2.2 28 Nordeste 47 Nordeste 0 -- -- 53
2020-03-30 10:00:00 0 18 Nordeste 37 Nordeste 0 -- -- 65
2020-03-30 09:00:00 -1.4 17 Norte 42 Noroeste 0 -- -- 71
2020-03-30 08:00:00 -1.4 15 Nordeste 33 Nordeste 0 -- -- 79
2020-03-30 07:00:00 -0.9 16 Norte 34 Nordeste 0 -- -- 80
2020-03-30 06:00:00 -0.8 14 Norte 43 Norte 0 -- -- 84
2020-03-30 05:00:00 -0.2 16 Nordeste 40 Nordeste 0 -- -- 83
2020-03-30 04:00:00 0.2 15 Nordeste 41 Nordeste 0 -- -- 84
2020-03-30 03:00:00 0.6 20 Nordeste 40 Este 0 -- -- 85
2020-03-30 02:00:00 1.1 19 Nordeste 34 Nordeste 0 -- -- 85
2020-03-30 01:00:00 1.8 13 Nordeste 34 Nordeste 0 -- -- 88
2020-03-30 00:00:00 2.9 14 Nordeste 29 Nordeste 0 -- -- 89
2020-03-29 23:00:00 4.6 14 Norte 35 Norte 0 -- -- 90
2020-03-29 22:00:00 5.7 17 Norte 36 Norte 0 -- -- 87
2020-03-29 21:00:00 5.9 12 Norte 32 Nordeste 0 -- -- 85
2020-03-29 20:00:00 6.3 13 Norte 36 Norte 0 -- -- 80
2020-03-29 19:00:00 7.2 15 Norte 36 Este 0 -- -- 75
2020-03-29 18:00:00 8.7 17 Nordeste 48 Nordeste 0 -- -- 68
2020-03-29 17:00:00 11.4 26 Nordeste 51 Nordeste 0 -- -- 53
2020-03-29 16:00:00 11.3 33 Nordeste 60 Nordeste 0 -- -- 52
2020-03-29 15:00:00 11.9 32 Nordeste 60 Norte 0 -- -- 47
2020-03-29 14:00:00 11.4 34 Nordeste 59 Nordeste 0 -- -- 50
2020-03-29 13:00:00 11.1 36 Nordeste 54 Nordeste 0 -- -- 51
2020-03-29 12:00:00 11.5 23 Nordeste 55 Nordeste 0 -- -- 49
2020-03-29 11:00:00 10.5 21 Nordeste 41 Nordeste 0 -- -- 51
2020-03-29 10:00:00 6.8 19 Nordeste 43 Nordeste 0 -- -- 61
2020-03-29 09:00:00 -0.4 3 Noroeste 11 Noroeste 0 -- -- 96
2020-03-29 08:00:00 -0.7 3 Norte 14 Norte 0 -- -- 98
2020-03-29 07:00:00 -0.5 5 Norte 17 Norte 0 -- -- 98
2020-03-29 06:00:00 -0.2 5 Norte 9 Noroeste 0 -- -- 97
2020-03-29 05:00:00 0.1 6 Noroeste 12 Norte 0 -- -- 97
2020-03-29 03:00:00 1.1 4 Norte 9 Noroeste 0 -- -- 94
2020-03-29 01:00:00 1.7 6 Noroeste 14 Norte 0 -- -- 91
2020-03-29 00:00:00 2.5 5 Norte 17 Norte 0 -- -- 88
2020-03-28 23:00:00 3.5 9 Norte 19 Noroeste 0 -- -- 85
2020-03-28 22:00:00 4.3 4 Norte 12 Norte 0 -- -- 82
2020-03-28 21:00:00 6.1 7 Norte 14 Norte 0 -- -- 74
2020-03-28 20:00:00 8 5 Nordeste 28 Nordeste 0 -- -- 64
2020-03-28 19:00:00 9.5 16 Nordeste 29 Nordeste 0 -- -- 59
2020-03-28 18:00:00 11.9 17 Nordeste 30 Nordeste 0 -- -- 51
2020-03-28 17:00:00 13.8 22 Nordeste 32 Nordeste 0 -- -- 46
2020-03-28 16:00:00 16.4 12 Nordeste 24 Nordeste 0 -- -- 38
2020-03-28 15:00:00 13.8 10 Nordeste 26 Nordeste 0 -- -- 45
2020-03-28 14:00:00 14.9 4 Sur 22 Sudoeste 0 -- -- 38
2020-03-28 13:00:00 16 7 Sur 15 Sudeste 0 -- -- 32
2020-03-28 12:00:00 15 7 Sur 13 Sur 0 -- -- 34
2020-03-28 11:00:00 14.4 3 Este 6 Sudeste 0 -- -- 32
2020-03-28 10:00:00 9.1 3 Nordeste 5 Nordeste 0 -- -- 57
2020-03-28 09:00:00 4.5 0 Calma 5 Nordeste 0 -- -- 74
2020-03-28 08:00:00 -1.1 0 Calma 9 Norte 0 -- -- 96
2020-03-28 07:00:00 -2.1 5 Norte 8 Norte 0 -- -- 98
2020-03-28 06:00:00 -2.1 4 Norte 8 Norte 0 -- -- 97
2020-03-28 05:00:00 -1.8 4 Norte 8 Norte 0 -- -- 96
2020-03-28 04:00:00 -1.4 6 Norte 10 Norte 0 -- -- 94
2020-03-28 03:00:00 -1 5 Norte 8 Noroeste 0 -- -- 93
2020-03-28 02:00:00 -0.3 3 Noroeste 9 Norte 0 -- -- 91
2020-03-28 01:00:00 0.9 2 Noroeste 13 Norte 0 -- -- 86
2020-03-28 00:00:00 1.9 4 Noroeste 11 Noroeste 0 -- -- 82
2020-03-27 23:00:00 2.9 4 Noroeste 12 Noroeste 0 -- -- 76
2020-03-27 22:00:00 4.1 6 Norte 17 Norte 0 -- -- 71
2020-03-27 21:00:00 5.7 6 Norte 25 Este 0 -- -- 61
2020-03-27 20:00:00 5.5 5 Nordeste 19 Este 0 -- -- 66
2020-03-27 19:00:00 6.9 9 Nordeste 28 Nordeste 0 -- -- 61
2020-03-27 18:00:00 8.9 18 Nordeste 35 Nordeste 0 -- -- 51
2020-03-27 17:00:00 10.6 23 Nordeste 39 Nordeste 0 -- -- 46
2020-03-27 16:00:00 12.9 18 Nordeste 27 Nordeste 0 -- -- 39
2020-03-27 15:00:00 13.6 15 Nordeste 30 Nordeste 0 -- -- 38
2020-03-27 14:00:00 14 18 Nordeste 30 Nordeste 0 -- -- 36
2020-03-27 13:00:00 13.1 17 Nordeste 33 Nordeste 0 -- -- 39
2020-03-27 12:00:00 10.8 5 Sur 15 Sur 0 -- -- 33
2020-03-27 11:00:00 8.6 4 Sur 7 Sur 0 -- -- 41
2020-03-27 10:00:00 6.1 0 Calma 5 Sur 0 -- -- 58
2020-03-27 09:00:00 1.3 0 Calma 4 Este 0 -- -- 85
2020-03-27 08:00:00 -3.5 2 Nordeste 6 Norte 0 -- -- 98
2020-03-27 07:00:00 -3.8 4 Norte 7 Noroeste 0 -- -- 97
2020-03-27 06:00:00 -3.5 4 Norte 9 Norte 0 -- -- 96
2020-03-27 05:00:00 -3.3 2 Norte 10 Norte 0 -- -- 97
2020-03-27 04:00:00 -3 3 Norte 11 Nordeste 0 -- -- 96
2020-03-27 03:00:00 -2.8 0 Calma 6 Norte 0 -- -- 95
2020-03-27 02:00:00 -2.3 4 Norte 11 Norte 0 -- -- 93
2020-03-27 01:00:00 -2 4 Norte 8 Noroeste 0 -- -- 91
2020-03-27 00:00:00 -1 4 Norte 8 Norte 0 -- -- 86
2020-03-26 23:00:00 1 2 Noroeste 20 Noroeste 0 -- -- 75
2020-03-26 22:00:00 1.5 8 Norte 26 Norte 0 -- -- 74
2020-03-26 21:00:00 2 11 Norte 27 Norte 0 -- -- 69
2020-03-26 20:00:00 2.2 9 Norte 36 Noroeste 0 -- -- 66
2020-03-26 19:00:00 3.1 14 Nordeste 36 Nordeste 0 -- -- 62
2020-03-26 18:00:00 4.9 15 Nordeste 35 Nordeste 0 -- -- 54
2020-03-26 17:00:00 6.4 21 Nordeste 42 Nordeste 0 -- -- 44
2020-03-26 16:00:00 8.2 28 Nordeste 44 Nordeste 0 -- -- 39
2020-03-26 15:00:00 8.6 23 Nordeste 40 Nordeste 0 -- -- 36
2020-03-26 14:00:00 8.5 20 Nordeste 55 Este 0 -- -- 32
2020-03-26 13:00:00 8.1 18 Nordeste 42 Nordeste 0 -- -- 36
2020-03-26 12:00:00 8.2 9 Nordeste 35 Norte 0 -- -- 41
2020-03-26 11:00:00 3.9 17 Norte 35 Noroeste 0 -- -- 51
2020-03-26 10:00:00 4.1 14 Norte 45 Norte 0 -- -- 56
2020-03-26 09:00:00 3.5 11 Norte 36 Noroeste 0 -- -- 56
2020-03-26 08:00:00 3.6 8 Norte 33 Noroeste 0 -- -- 61
2020-03-26 07:00:00 3.5 13 Nordeste 33 Nordeste 0 -- -- 67
2020-03-26 06:00:00 4.2 11 Norte 32 Norte 0 -- -- 69
2020-03-26 05:00:00 1.6 4 Nordeste 12 Nordeste 0 -- -- 90
2020-03-26 04:00:00 -0.1 2 Norte 6 Norte 0 -- -- 93
2020-03-26 03:00:00 -0.7 3 Nordeste 11 Norte 0 -- -- 96
2020-03-26 02:00:00 -1.3 2 Norte 17 Norte 0 -- -- 94
2020-03-26 01:00:00 -1 8 Norte 18 Norte 0 -- -- 94
2020-03-26 00:00:00 -0.4 3 Nordeste 13 Norte 0 -- -- 94
2020-03-25 23:00:00 0.1 4 Norte 13 Norte 0 -- -- 92
2020-03-25 22:00:00 1.5 3 Norte 8 Norte 0 -- -- 90
2020-03-25 21:00:00 3.1 0 Calma 5 Noroeste 0 -- -- 85
2020-03-25 20:00:00 5.9 3 Sur 16 Nordeste 0 -- -- 73
2020-03-25 19:00:00 8 13 Nordeste 31 Este 0 -- -- 68
2020-03-25 18:00:00 9.9 23 Nordeste 33 Nordeste 0 -- -- 61
2020-03-25 17:00:00 10.7 12 Norte 27 Norte 0 -- -- 59
2020-03-25 16:00:00 10.7 6 Sur 28 Sur 0 -- -- 59
2020-03-25 15:00:00 11.4 12 Sur 23 Sudoeste 0 -- -- 56
2020-03-25 14:00:00 12.6 3 Este 27 Sudoeste 0 -- -- 47
2020-03-25 13:00:00 10.5 10 Sudoeste 23 Sur 0 -- -- 59
2020-03-25 12:00:00 10.9 10 Sur 29 Sur 0 -- -- 60
2020-03-25 11:00:00 9.2 17 Sudoeste 28 Sudoeste 0 -- -- 74
2020-03-25 10:00:00 9.1 3 Sur 11 Sur 0 -- -- 76
2020-03-25 09:00:00 3.9 2 Nordeste 4 Este 0 -- -- 97
2020-03-25 08:00:00 1.6 0 Calma 5 Nordeste 0 -- -- 99
2020-03-25 07:00:00 1.7 3 Norte 8 Norte 0 -- -- 99
2020-03-25 06:00:00 1.5 5 Norte 10 Norte 0 -- -- 99
2020-03-25 05:00:00 1.5 4 Norte 9 Noroeste 0 -- -- 100
2020-03-25 04:00:00 1.2 4 Norte 9 Noroeste 0 -- -- 100
2020-03-25 03:00:00 0.8 3 Norte 9 Norte 0 -- -- 100
2020-03-25 02:00:00 0.9 3 Norte 7 Norte 0 -- -- 100
2020-03-25 01:00:00 1.6 3 Noroeste 8 Norte 0 -- -- 99
2020-03-25 00:00:00 2.4 3 Norte 8 Norte 0 -- -- 98
2020-03-24 23:00:00 3.5 4 Norte 7 Norte 0 -- -- 95
2020-03-24 22:00:00 4.6 3 Norte 10 Norte 0 -- -- 93
2020-03-24 21:00:00 6.1 4 Norte 10 Norte 0 -- -- 86
2020-03-24 20:00:00 7.4 4 Norte 12 Nordeste 0 -- -- 81
2020-03-24 19:00:00 10.1 5 Norte 28 Nordeste 0 -- -- 63
2020-03-24 18:00:00 12 19 Nordeste 33 Nordeste 0 -- -- 59
2020-03-24 17:00:00 13.5 13 Norte 41 Nordeste 0 -- -- 56
2020-03-24 16:00:00 15 26 Nordeste 48 Nordeste 0 -- -- 48
2020-03-24 15:00:00 14.8 33 Nordeste 47 Nordeste 0 -- -- 52
2020-03-24 14:00:00 15.9 23 Nordeste 41 Nordeste 0 -- -- 51
2020-03-24 13:00:00 12.9 10 Sur 24 Sudoeste 0 -- -- 64
2020-03-24 12:00:00 12.4 11 Sur 19 Sur 0 -- -- 72
2020-03-24 11:00:00 12.2 5 Sur 12 Sudoeste 0 -- -- 70
2020-03-24 10:00:00 11.9 2 Norte 7 Norte 0 -- -- 80
2020-03-24 09:00:00 7.5 0 Calma 7 Norte 0 -- -- 100
2020-03-24 08:00:00 5.5 2 Norte 6 Norte 0 -- -- 100
2020-03-24 07:00:00 5 2 Nordeste 12 Norte 0 -- -- 100
2020-03-24 06:00:00 5.1 5 Norte 10 Norte 0 -- -- 100
2020-03-24 05:00:00 5.3 2 Nordeste 9 Nordeste 0 -- -- 100
2020-03-24 04:00:00 5.3 4 Nordeste 8 Nordeste 0 -- -- 100
2020-03-24 03:00:00 5.5 2 Nordeste 5 Nordeste 0 -- -- 100
2020-03-24 02:00:00 5.5 0 Calma 4 Este 0 -- -- 100
2020-03-24 01:00:00 5.4 0 Calma 4 Sur 0 -- -- 100
2020-03-24 00:00:00 5.9 0 Calma 10 Nordeste 0 -- -- 100
2020-03-23 23:00:00 6.3 0 Calma 8 Nordeste 0.2 -- -- 100
2020-03-23 22:00:00 6.4 0 Calma 3 Noroeste 0.4 -- -- 100
2020-03-23 21:00:00 6.5 0 Calma 4 Sudoeste 0 -- -- 99
2020-03-23 20:00:00 7 0 Calma 7 Sudeste 0.6 -- -- 98
2020-03-23 19:00:00 7.6 0 Calma 9 Nordeste 1.8 -- -- 97
2020-03-23 18:00:00 7.8 3 Nordeste 34 Nordeste 0.8 -- -- 94
2020-03-23 17:00:00 11.9 12 Nordeste 22 Nordeste 0 -- -- 71
2020-03-23 16:00:00 13.4 5 Nordeste 17 Nordeste 0 -- -- 70
2020-03-23 15:00:00 13.3 3 Este 6 Sudeste 0 -- -- 72
2020-03-23 14:00:00 12.1 2 Norte 5 Noroeste 0.4 -- -- 83
2020-03-23 13:00:00 11.5 2 Sudeste 10 Sur 0 -- -- 76
2020-03-23 12:00:00 13.5 3 Oeste 6 Sur 0 -- -- 66
2020-03-23 11:00:00 10.7 2 Norte 5 Norte 0 -- -- 94
2020-03-23 10:00:00 7.9 0 Calma 6 Nordeste 0 -- -- 100
2020-03-23 09:00:00 6.4 2 Norte 4 Norte 0.6 -- -- 100
2020-03-23 08:00:00 6.1 0 Calma 3 Noroeste 1.2 -- -- 100
2020-03-23 07:00:00 6 0 Calma 3 Norte 0.2 -- -- 100
2020-03-23 06:00:00 5.9 0 Calma 3 Nordeste 0 -- -- 100
2020-03-23 05:00:00 6 0 Calma 3 Nordeste 0 -- -- 100
2020-03-23 04:00:00 6.1 0 Calma 3 Este 0.2 -- -- 99
2020-03-23 03:00:00 6.4 0 Calma 9 Sudoeste 0.8 -- -- 98
2020-03-23 02:00:00 6.6 5 Sudoeste 17 Sudeste 0 -- -- 97
2020-03-23 01:00:00 6.9 3 Sur 15 Sudoeste 0 -- -- 96
2020-03-23 00:00:00 7.3 8 Sur 23 Sudoeste 0 -- -- 93
2020-03-22 23:00:00 7.8 12 Sudoeste 22 Sudoeste 0 -- -- 91
2020-03-22 22:00:00 8 2 Sudoeste 13 Norte 0.2 -- -- 91
2020-03-22 21:00:00 8.5 3 Norte 17 Norte 0 -- -- 85
2020-03-22 20:00:00 8.7 5 Norte 20 Nordeste 0 -- -- 85
2020-03-22 19:00:00 9.7 12 Nordeste 22 Este 0 -- -- 78
2020-03-22 18:00:00 10.9 16 Nordeste 35 Nordeste 0 -- -- 72
2020-03-22 17:00:00 13.5 6 Sur 18 Sudoeste 0 -- -- 54
2020-03-22 16:00:00 14.7 10 Sur 20 Sudoeste 0 -- -- 49
2020-03-22 15:00:00 14.6 12 Sur 23 Sur 0 -- -- 49
2020-03-22 14:00:00 13 11 Sur 27 Sur 0 -- -- 54
2020-03-22 13:00:00 14 15 Sur 26 Sur 0 -- -- 51
2020-03-22 12:00:00 15.9 9 Norte 16 Nordeste 0 -- -- 46
2020-03-22 11:00:00 14.9 11 Nordeste 17 Nordeste 0 -- -- 66
2020-03-22 10:00:00 9.3 3 Nordeste 10 Nordeste 0 -- -- 91
2020-03-22 09:00:00 5.5 3 Nordeste 6 Norte 0 -- -- 99
2020-03-22 08:00:00 3.2 2 Norte 6 Norte 0 -- -- 100
2020-03-22 07:00:00 3.5 0 Calma 7 Norte 0 -- -- 99
2020-03-22 06:00:00 3.4 4 Noroeste 8 Noroeste 1.4 -- -- 98
2020-03-22 05:00:00 3.1 3 Norte 8 Norte 0 -- -- 96
2020-03-22 04:00:00 2.9 3 Norte 10 Norte 0 -- -- 97
2020-03-22 03:00:00 2.1 3 Norte 9 Norte 0 -- -- 98
2020-03-22 02:00:00 2.6 4 Noroeste 8 Norte 0 -- -- 96
2020-03-22 01:00:00 3.2 2 Norte 7 Nordeste 0 -- -- 96
2020-03-22 00:00:00 3.8 0 Calma 5 Nordeste 0 -- -- 94
2020-03-21 23:00:00 5 0 Calma 3 Nordeste 0 -- -- 91
2020-03-21 22:00:00 5.1 0 Calma 8 Noroeste 0 -- -- 90
2020-03-21 21:00:00 6.7 0 Calma 10 Sudoeste 0 -- -- 83
2020-03-21 20:00:00 9 4 Sudoeste 13 Sudoeste 0 -- -- 71
2020-03-21 19:00:00 10.9 8 Sur 17 Sudoeste 0 -- -- 64
2020-03-21 18:00:00 13.2 10 Sur 22 Sudoeste 0 -- -- 51
2020-03-21 17:00:00 15.2 10 Sudoeste 20 Sur 0 -- -- 44
2020-03-21 16:00:00 15.5 11 Sudoeste 23 Sur 0 -- -- 41
2020-03-21 15:00:00 15.2 12 Sur 24 Sudoeste 0 -- -- 43
2020-03-21 14:00:00 14.9 12 Sur 27 Sudoeste 0 -- -- 46
2020-03-21 13:00:00 13.4 16 Sur 29 Sudoeste 0 -- -- 51
2020-03-21 12:00:00 13.1 13 Sur 23 Sur 0 -- -- 55
2020-03-21 11:00:00 11.2 9 Sur 16 Sur 0 -- -- 65
2020-03-21 10:00:00 9.9 2 Este 4 Nordeste 0 -- -- 72
2020-03-21 09:00:00 4.5 0 Calma 4 Nordeste 0 -- -- 98
2020-03-21 08:00:00 2.3 0 Calma 4 Norte 0 -- -- 100
2020-03-21 07:00:00 1.6 2 Norte 4 Nordeste 0 -- -- 100
2020-03-21 06:00:00 1 2 Nordeste 4 Norte 0 -- -- 100
2020-03-21 05:00:00 0.5 0 Calma 6 Norte 0 -- -- 100
2020-03-21 04:00:00 0.8 0 Calma 6 Noroeste 0 -- -- 100
2020-03-21 03:00:00 1.4 0 Calma 5 Norte 0 -- -- 100
2020-03-21 02:00:00 2.1 0 Calma 6 Norte 0 -- -- 99
2020-03-21 01:00:00 2.8 2 Norte 6 Noroeste 0 -- -- 98
2020-03-21 00:00:00 3.8 0 Calma 3 Norte 0 -- -- 97
2020-03-20 23:00:00 4.7 0 Calma 8 Norte 0 -- -- 94
2020-03-20 22:00:00 6.1 2 Oeste 14 Sudoeste 0 -- -- 89
2020-03-20 21:00:00 7.8 8 Sudoeste 15 Sudoeste 0 -- -- 80
2020-03-20 20:00:00 9.5 7 Sur 20 Sudoeste 0 -- -- 72
2020-03-20 19:00:00 11.1 9 Sudoeste 29 Sudoeste 0 -- -- 65
2020-03-20 18:00:00 12.6 14 Sudoeste 34 Sudoeste 0 -- -- 58
2020-03-20 17:00:00 14 10 Sudoeste 32 Sudoeste 0 -- -- 53
2020-03-20 16:00:00 14.8 13 Sudoeste 31 Sudoeste 0 -- -- 49
2020-03-20 15:00:00 15.1 18 Sudoeste 31 Sudoeste 0 -- -- 48
2020-03-20 14:00:00 15.1 14 Sudoeste 31 Sur 0 -- -- 50
2020-03-20 13:00:00 14.3 14 Sur 27 Sudoeste 0 -- -- 51
2020-03-20 12:00:00 13.7 15 Sudoeste 31 Sudoeste 0 -- -- 52
2020-03-20 11:00:00 12.5 11 Sudoeste 27 Oeste 0 -- -- 55
2020-03-20 10:00:00 9.2 2 Nordeste 5 Nordeste 0 -- -- 86
2020-03-20 09:00:00 3.8 2 Nordeste 4 Norte 0 -- -- 99
2020-03-20 08:00:00 1.3 0 Calma 6 Norte 0 -- -- 100
2020-03-20 07:00:00 1.3 2 Nordeste 5 Norte 0 -- -- 100
2020-03-20 06:00:00 1.7 2 Norte 6 Norte 0 -- -- 100
2020-03-20 05:00:00 2.2 2 Norte 5 Norte 0 -- -- 100
2020-03-20 04:00:00 2.8 3 Norte 6 Noroeste 0 -- -- 100
2020-03-20 03:00:00 3.4 3 Norte 6 Norte 0 -- -- 99
2020-03-20 02:00:00 4.1 2 Norte 6 Noroeste 0 -- -- 99
2020-03-20 01:00:00 4.8 0 Calma 6 Noroeste 0 -- -- 98
2020-03-20 00:00:00 5.5 2 Noroeste 8 Oeste 0 -- -- 96
2020-03-19 23:00:00 6.5 0 Calma 13 Sur 0 -- -- 94
2020-03-19 22:00:00 7.6 2 Sudoeste 7 Oeste 0 -- -- 90
2020-03-19 21:00:00 9 3 Noroeste 15 Sur 0 -- -- 84
2020-03-19 20:00:00 10.4 5 Sur 17 Sudoeste 0 -- -- 78
2020-03-19 19:00:00 13.1 13 Sudoeste 19 Sur 0 -- -- 62
2020-03-19 18:00:00 14.5 8 Sudoeste 21 Sudoeste 0 -- -- 62
2020-03-19 17:00:00 16 8 Sudoeste 27 Sur 0 -- -- 54
2020-03-19 16:00:00 16.5 16 Sudoeste 28 Sur 0 -- -- 52
2020-03-19 15:00:00 16.9 10 Sur 29 Sudoeste 0 -- -- 51
2020-03-19 14:00:00 15.9 13 Sudoeste 31 Sudoeste 0 -- -- 52
2020-03-19 13:00:00 15.9 14 Sur 30 Sudoeste 0 -- -- 51
2020-03-19 12:00:00 15 15 Sur 26 Sudoeste 0 -- -- 62
2020-03-19 11:00:00 11.4 2 Oeste 5 Sudoeste 0 -- -- 82
2020-03-19 10:00:00 8 0 Calma 3 Nordeste 0 -- -- 99
2020-03-19 09:00:00 5.3 2 Nordeste 5 Nordeste 0 -- -- 100
2020-03-19 08:00:00 3.9 2 Nordeste 6 Este 0 -- -- 100
2020-03-19 07:00:00 3.6 4 Nordeste 6 Nordeste 0 -- -- 100
2020-03-19 06:00:00 4.3 4 Nordeste 9 Nordeste 0 -- -- 100
2020-03-19 05:00:00 4.5 4 Nordeste 7 Nordeste 0 -- -- 100
2020-03-19 04:00:00 4.7 3 Nordeste 8 Nordeste 0 -- -- 100
2020-03-19 03:00:00 4.5 0 Calma 4 Este 0 -- -- 100
2020-03-19 02:00:00 4.7 0 Calma 4 Noroeste 0 -- -- 100
2020-03-19 01:00:00 5.2 3 Norte 5 Norte 0 -- -- 100
2020-03-19 00:00:00 5.8 0 Calma 4 Noroeste 0 -- -- 100
2020-03-18 23:00:00 6.4 0 Calma 5 Noroeste 0 -- -- 99
2020-03-18 22:00:00 7.5 0 Calma 3 Nordeste 0 -- -- 98
2020-03-18 21:00:00 8.3 0 Calma 2 Este 0 -- -- 97
2020-03-18 20:00:00 9.8 0 Calma 4 Sur 0 -- -- 93
2020-03-18 19:00:00 12 3 Sur 13 Sudoeste 0 -- -- 84
2020-03-18 18:00:00 14.4 8 Sudoeste 17 Sudoeste 0 -- -- 68
2020-03-18 17:00:00 14.9 10 Sudoeste 20 Sur 0 -- -- 66
2020-03-18 16:00:00 15.4 12 Sudoeste 23 Sudoeste 0 -- -- 61
2020-03-18 15:00:00 15.6 15 Sudoeste 24 Sur 0 -- -- 57
2020-03-18 14:00:00 16.1 12 Sur 24 Sudoeste 0 -- -- 54
2020-03-18 13:00:00 14.4 9 Sur 16 Sur 0 -- -- 61
2020-03-18 12:00:00 12 0 Calma 3 Este 0 -- -- 78
2020-03-18 11:00:00 9.3 0 Calma 4 Noroeste 0 -- -- 96
2020-03-18 10:00:00 6.7 0 Calma 4 Norte 0 -- -- 100
2020-03-18 09:00:00 4.4 2 Nordeste 4 Nordeste 0 -- -- 100
2020-03-18 08:00:00 3.2 0 Calma 6 Nordeste 0 -- -- 100
2020-03-18 07:00:00 3 5 Nordeste 9 Nordeste 0 -- -- 100
2020-03-18 06:00:00 3.4 3 Nordeste 6 Nordeste 0 -- -- 100
2020-03-18 05:00:00 3.8 4 Nordeste 8 Nordeste 0 -- -- 100
2020-03-18 04:00:00 4.2 4 Nordeste 9 Nordeste 0 -- -- 100
2020-03-18 03:00:00 4.5 3 Nordeste 5 Nordeste 0 -- -- 100
2020-03-18 02:00:00 4.8 5 Nordeste 9 Nordeste 0 -- -- 100
2020-03-18 01:00:00 5.2 4 Nordeste 6 Nordeste 0 -- -- 100
2020-03-18 00:00:00 5.8 3 Nordeste 12 Nordeste 0 -- -- 100
2020-03-17 23:00:00 6.3 0 Calma 6 Nordeste 0 -- -- 100
2020-03-17 22:00:00 6.5 0 Calma 5 Norte 0 -- -- 100
2020-03-17 21:00:00 7.1 2 Norte 5 Noroeste 0 -- -- 99
2020-03-17 20:00:00 8.4 2 Sudoeste 6 Noroeste 0 -- -- 98
2020-03-17 19:00:00 10 0 Calma 8 Sur 0 -- -- 93
2020-03-17 18:00:00 11.2 4 Sudoeste 18 Sudoeste 0 -- -- 84
2020-03-17 17:00:00 11.9 3 Nordeste 6 Sudoeste 0 -- -- 82
2020-03-17 16:00:00 10.8 0 Calma 4 Noroeste 0 -- -- 86
2020-03-17 15:00:00 10.2 0 Calma 2 Este 0 -- -- 88
2020-03-17 14:00:00 9.8 2 Nordeste 6 Nordeste 0 -- -- 90
2020-03-17 13:00:00 7.9 0 Calma 6 Norte 0 -- -- 98
2020-03-17 12:00:00 6.8 3 Norte 7 Norte 0 -- -- 100
2020-03-17 11:00:00 5.8 3 Norte 9 Norte 0 -- -- 100
2020-03-17 10:00:00 5 2 Norte 11 Norte 0 -- -- 100
2020-03-17 09:00:00 4 3 Norte 10 Norte 0 -- -- 100
2020-03-17 08:00:00 3.4 4 Norte 13 Norte 0 -- -- 100
2020-03-17 07:00:00 3.1 3 Norte 12 Norte 0 -- -- 100
2020-03-17 06:00:00 2.7 4 Norte 14 Norte 0 -- -- 100
2020-03-17 05:00:00 3.2 3 Norte 10 Norte 0 -- -- 100
2020-03-17 04:00:00 3.4 5 Noroeste 9 Norte 0 -- -- 100
2020-03-17 03:00:00 3.4 5 Norte 14 Norte 0 -- -- 100
2020-03-17 02:00:00 3.1 2 Nordeste 11 Noroeste 0 -- -- 100
2020-03-17 01:00:00 2.7 4 Noroeste 17 Norte 0 -- -- 100
2020-03-17 00:00:00 2.4 6 Norte 13 Norte 0 -- -- 100
2020-03-16 23:00:00 3.1 5 Norte 14 Norte 0 -- -- 100
2020-03-16 22:00:00 3.3 4 Norte 9 Noroeste 0 -- -- 100
2020-03-16 21:00:00 4 4 Norte 16 Norte 0 -- -- 100
2020-03-16 20:00:00 4.8 3 Norte 13 Nordeste 0 -- -- 97
2020-03-16 19:00:00 5.7 6 Nordeste 20 Este 0.2 -- -- 96
2020-03-16 18:00:00 6.1 10 Nordeste 19 Nordeste 0 -- -- 95
2020-03-16 17:00:00 6.7 5 Este 14 Este 0 -- -- 95
2020-03-16 16:00:00 6.2 6 Nordeste 17 Nordeste 0 -- -- 97
2020-03-16 15:00:00 6.2 6 Nordeste 10 Nordeste 0 -- -- 98
2020-03-16 14:00:00 6.2 3 Nordeste 6 Este 0 -- -- 100
2020-03-16 13:00:00 5.6 5 Nordeste 9 Este 0 -- -- 100
2020-03-16 12:00:00 5 0 Calma 3 Nordeste 0.4 -- -- 100
2020-03-16 11:00:00 4.5 0 Calma 5 Norte 1 -- -- 100
2020-03-16 10:00:00 3.8 2 Norte 8 Norte 0.8 -- -- 100
2020-03-16 09:00:00 3.1 4 Norte 8 Norte 1.2 -- -- 100
2020-03-16 08:00:00 3 4 Norte 11 Nordeste 1.8 -- -- 100
2020-03-16 07:00:00 3 3 Nordeste 16 Nordeste 2.4 -- -- 100
2020-03-16 06:00:00 3.5 8 Nordeste 29 Norte 2.8 -- -- 100
2020-03-16 05:00:00 4.1 18 Norte 30 Norte 2.8 -- -- 100
2020-03-16 04:00:00 4.8 3 Noroeste 10 Norte 2.4 -- -- 100
2020-03-16 03:00:00 5 2 Norte 8 Nordeste 5.6 -- -- 100
2020-03-16 02:00:00 4.9 0 Calma 10 Norte 7.8 -- -- 100
2020-03-16 01:00:00 4.9 2 Nordeste 7 Norte 6.6 -- -- 100
2020-03-16 00:00:00 4.8 4 Noroeste 12 Nordeste 4.2 -- -- 99
2020-03-15 23:00:00 5.2 3 Nordeste 72 Oeste 14.6 -- -- 98
2020-03-15 22:00:00 10.7 23 Sur 49 Este 1.4 -- -- 82
2020-03-15 21:00:00 10.2 9 Sudoeste 51 Este 0.8 -- -- 88
2020-03-15 20:00:00 12.3 9 Sudoeste 27 Sur 0 -- -- 68
2020-03-15 19:00:00 11.9 5 Sudoeste 17 Sudoeste 0 -- -- 70
2020-03-15 18:00:00 12.5 11 Sur 28 Sudeste 0 -- -- 70
2020-03-15 17:00:00 13.8 12 Sudoeste 29 Sur 0 -- -- 68
2020-03-15 16:00:00 16.3 13 Sudoeste 30 Sudoeste 0 -- -- 50
2020-03-15 15:00:00 16.9 12 Sudoeste 25 Sudoeste 0 -- -- 43
2020-03-15 14:00:00 16.5 8 Sur 32 Sudoeste 0 -- -- 42
2020-03-15 13:00:00 17.7 21 Sudoeste 40 Sudoeste 0 -- -- 35
2020-03-15 12:00:00 14.9 9 Sur 36 Sudoeste 0 -- -- 37
2020-03-15 11:00:00 15.2 12 Sur 32 Sudoeste 0 -- -- 33
2020-03-15 10:00:00 6.4 2 Norte 5 Este 0 -- -- 70
2020-03-15 09:00:00 1.7 2 Nordeste 5 Este 0 -- -- 94
2020-03-15 08:00:00 -2.2 2 Nordeste 8 Norte 0 -- -- 99
2020-03-15 07:00:00 -2.3 3 Norte 6 Norte 0 -- -- 99
2020-03-15 06:00:00 -2.3 2 Nordeste 4 Nordeste 0 -- -- 98
2020-03-15 05:00:00 -1.9 0 Calma 7 Norte 0 -- -- 98
2020-03-15 04:00:00 -1.7 3 Norte 8 Norte 0 -- -- 97
2020-03-15 03:00:00 -1.3 4 Norte 8 Norte 0 -- -- 97
2020-03-15 02:00:00 -1 3 Norte 8 Norte 0 -- -- 96
2020-03-15 01:00:00 -0.3 4 Norte 10 Noroeste 0 -- -- 94
2020-03-15 00:00:00 0.6 6 Norte 11 Norte 0 -- -- 91
2020-03-14 23:00:00 1.6 4 Norte 10 Norte 0 -- -- 89
2020-03-14 22:00:00 3 5 Norte 10 Nordeste 0 -- -- 84
2020-03-14 21:00:00 4.3 4 Norte 11 Norte 0 -- -- 79
2020-03-14 20:00:00 6.5 5 Norte 18 Nordeste 0 -- -- 69
2020-03-14 19:00:00 9.6 11 Norte 21 Nordeste 0 -- -- 52
2020-03-14 18:00:00 11.9 14 Nordeste 23 Nordeste 0 -- -- 39
2020-03-14 17:00:00 15 13 Nordeste 27 Norte 0 -- -- 29
2020-03-14 16:00:00 17.6 10 Norte 20 Norte 0 -- -- 21
2020-03-14 15:00:00 17.4 12 Norte 24 Norte 0 -- -- 21
2020-03-14 14:00:00 16.4 13 Norte 25 Norte 0 -- -- 25
2020-03-14 13:00:00 16.5 13 Nordeste 27 Nordeste 0 -- -- 25
2020-03-14 12:00:00 15.5 13 Nordeste 29 Nordeste 0 -- -- 22
2020-03-14 11:00:00 13 10 Nordeste 19 Nordeste 0 -- -- 34
2020-03-14 10:00:00 6 5 Sur 9 Noroeste 0 -- -- 78
2020-03-14 09:00:00 2.9 3 Norte 10 Norte 0 -- -- 96
2020-03-14 08:00:00 0 3 Norte 16 Norte 0 -- -- 100
2020-03-14 07:00:00 0.2 4 Norte 15 Norte 0 -- -- 100
2020-03-14 06:00:00 1.3 9 Norte 20 Norte 0 -- -- 99
2020-03-14 05:00:00 1.7 8 Norte 17 Norte 0 -- -- 99
2020-03-14 04:00:00 1.9 9 Norte 16 Norte 0 -- -- 98
2020-03-14 03:00:00 2.6 6 Norte 19 Norte 0 -- -- 98
2020-03-14 02:00:00 3.3 3 Norte 14 Norte 0 -- -- 96
2020-03-14 01:00:00 4.6 4 Norte 17 Norte 0 -- -- 92
2020-03-14 00:00:00 6.4 5 Norte 16 Nordeste 0 -- -- 85
2020-03-13 23:00:00 7 4 Norte 12 Norte 0 -- -- 84
2020-03-13 22:00:00 6.9 5 Norte 11 Norte 0 -- -- 85
2020-03-13 21:00:00 7 4 Norte 12 Nordeste 0 -- -- 82
2020-03-13 20:00:00 7.1 5 Nordeste 13 Nordeste 0 -- -- 80
2020-03-13 19:00:00 7.3 12 Nordeste 24 Nordeste 0 -- -- 78
2020-03-13 18:00:00 8 15 Nordeste 22 Nordeste 0 -- -- 77
2020-03-13 17:00:00 9.2 12 Nordeste 23 Este 0 -- -- 73
2020-03-13 16:00:00 9.1 14 Nordeste 26 Nordeste 0 -- -- 75
2020-03-13 15:00:00 9.4 14 Nordeste 23 Este 0 -- -- 74
2020-03-13 14:00:00 10.1 12 Nordeste 21 Nordeste 0 -- -- 71
2020-03-13 13:00:00 9.5 16 Nordeste 24 Este 0 -- -- 74
2020-03-13 12:00:00 8.8 12 Nordeste 22 Nordeste 0 -- -- 76
2020-03-13 11:00:00 7.9 14 Nordeste 28 Nordeste 0 -- -- 76
2020-03-13 10:00:00 7.7 16 Nordeste 32 Nordeste 0 -- -- 77
2020-03-13 09:00:00 7 21 Nordeste 45 Nordeste 0 -- -- 81
2020-03-13 08:00:00 6.7 21 Nordeste 42 Este 0 -- -- 81
2020-03-13 07:00:00 6.5 18 Nordeste 41 Este 0 -- -- 82
2020-03-13 06:00:00 6.2 20 Nordeste 41 Nordeste 0 -- -- 84
2020-03-13 05:00:00 6.9 16 Nordeste 40 Nordeste 0 -- -- 85
2020-03-13 04:00:00 7.2 13 Nordeste 39 Este 0 -- -- 87
2020-03-13 03:00:00 7.2 11 Nordeste 36 Este 0 -- -- 90
2020-03-13 02:00:00 7.2 16 Nordeste 32 Este 0 -- -- 93
2020-03-13 01:00:00 7.9 10 Nordeste 33 Nordeste 0.4 -- -- 95
2020-03-13 00:00:00 8 5 Nordeste 41 Nordeste 1.2 -- -- 96
2020-03-12 23:00:00 9 15 Nordeste 39 Nordeste 0.6 -- -- 88
2020-03-12 22:00:00 10.1 16 Nordeste 33 Nordeste 0 -- -- 78
2020-03-12 21:00:00 10.5 10 Norte 36 Nordeste 0 -- -- 77
2020-03-12 20:00:00 10.5 15 Nordeste 32 Nordeste 0 -- -- 76
2020-03-12 19:00:00 11.2 20 Nordeste 32 Nordeste 0 -- -- 74
2020-03-12 18:00:00 12.9 23 Nordeste 50 Norte 0 -- -- 68
2020-03-12 17:00:00 16.3 33 Norte 46 Norte 0 -- -- 61
2020-03-12 16:00:00 22.4 10 Sudoeste 28 Sur 0 -- -- 40
2020-03-12 15:00:00 22.1 14 Sudoeste 33 Sudoeste 0 -- -- 37
2020-03-12 14:00:00 22.5 15 Sudoeste 30 Sur 0 -- -- 34
2020-03-12 13:00:00 22.3 15 Sudoeste 25 Sur 0 -- -- 35
2020-03-12 12:00:00 19.6 8 Sur 18 Sudoeste 0 -- -- 46
2020-03-12 11:00:00 15.6 2 Nordeste 11 Sudeste 0 -- -- 59
2020-03-12 10:00:00 11.1 0 Calma 4 Nordeste 0 -- -- 70
2020-03-12 09:00:00 7.2 2 Norte 7 Norte 0 -- -- 87
2020-03-12 08:00:00 4.3 3 Norte 8 Norte 0 -- -- 94
2020-03-12 07:00:00 4.2 4 Norte 13 Noroeste 0 -- -- 93
2020-03-12 06:00:00 4.3 4 Norte 10 Norte 0 -- -- 92
2020-03-12 05:00:00 4.2 3 Norte 8 Norte 0 -- -- 91
2020-03-12 04:00:00 4.5 4 Norte 8 Norte 0 -- -- 90
2020-03-12 03:00:00 4.8 3 Norte 8 Noroeste 0 -- -- 87
2020-03-12 02:00:00 5.2 3 Norte 12 Nordeste 0 -- -- 84
2020-03-12 01:00:00 5.5 4 Norte 10 Noroeste 0 -- -- 83
2020-03-12 00:00:00 5.6 4 Norte 9 Noroeste 0 -- -- 83
2020-03-11 23:00:00 5.9 4 Norte 13 Norte 0 -- -- 82
2020-03-11 22:00:00 6.8 4 Norte 10 Nordeste 0 -- -- 80
2020-03-11 21:00:00 8.1 4 Norte 8 Nordeste 0 -- -- 75
2020-03-11 20:00:00 9.9 0 Calma 6 Noroeste 0 -- -- 70
2020-03-11 19:00:00 12.5 3 Norte 9 Sur 0 -- -- 59
2020-03-11 18:00:00 17.7 5 Sur 17 Sudoeste 0 -- -- 35
2020-03-11 17:00:00 21.5 10 Sudoeste 20 Sudoeste 0 -- -- 24
2020-03-11 16:00:00 21.7 12 Sudoeste 23 Sudoeste 0 -- -- 26
2020-03-11 15:00:00 22.3 12 Sur 22 Sur 0 -- -- 30
2020-03-11 14:00:00 21.8 12 Sur 19 Sudoeste 0 -- -- 34
2020-03-11 13:00:00 21 11 Sudoeste 18 Sur 0 -- -- 37
2020-03-11 12:00:00 19.4 5 Sur 9 Sur 0 -- -- 39
2020-03-11 11:00:00 16.9 3 Nordeste 5 Nordeste 0 -- -- 46
2020-03-11 10:00:00 10.6 0 Calma 7 Norte 0 -- -- 66
2020-03-11 09:00:00 5.3 2 Norte 11 Norte 0 -- -- 84
2020-03-11 08:00:00 2 3 Norte 10 Norte 0 -- -- 96
2020-03-11 07:00:00 2 4 Nordeste 9 Noroeste 0 -- -- 95
2020-03-11 06:00:00 2 3 Nordeste 9 Norte 0 -- -- 92
2020-03-11 05:00:00 2.4 4 Norte 10 Norte 0 -- -- 91
2020-03-11 04:00:00 2.6 4 Nordeste 16 Norte 0 -- -- 85
2020-03-11 03:00:00 2.6 5 Norte 10 Noroeste 0 -- -- 84
2020-03-11 02:00:00 2.8 6 Norte 19 Norte 0 -- -- 82
2020-03-11 01:00:00 3.3 6 Norte 20 Norte 0 -- -- 78
2020-03-11 00:00:00 3.2 6 Norte 16 Norte 0 -- -- 78
2020-03-10 23:00:00 3.3 3 Norte 9 Noroeste 0 -- -- 77
2020-03-10 22:00:00 5.2 5 Norte 17 Norte 0 -- -- 64
2020-03-10 21:00:00 6.5 8 Norte 22 Norte 0 -- -- 57
2020-03-10 20:00:00 9.2 19 Nordeste 32 Nordeste 0 -- -- 47
2020-03-10 19:00:00 11.5 14 Nordeste 34 Nordeste 0 -- -- 41
2020-03-10 18:00:00 14.2 18 Norte 35 Nordeste 0 -- -- 23
2020-03-10 17:00:00 15.6 13 Norte 35 Nordeste 0 -- -- 23
2020-03-10 16:00:00 16.4 24 Nordeste 39 Nordeste 0 -- -- 23
2020-03-10 15:00:00 16.6 24 Nordeste 36 Este 0 -- -- 26
2020-03-10 14:00:00 18 17 Nordeste 32 Este 0 -- -- 22
2020-03-10 13:00:00 18.1 13 Nordeste 30 Nordeste 0 -- -- 27
2020-03-10 12:00:00 17.5 12 Nordeste 28 Este 0 -- -- 34
2020-03-10 11:00:00 14.3 6 Nordeste 22 Nordeste 0 -- -- 47
2020-03-10 10:00:00 9.2 8 Norte 23 Noroeste 0 -- -- 66
2020-03-10 09:00:00 5.4 13 Norte 27 Norte 0 -- -- 79
2020-03-10 08:00:00 3.4 14 Norte 30 Norte 0 -- -- 87
2020-03-10 07:00:00 3.6 10 Norte 35 Norte 0 -- -- 84
2020-03-10 06:00:00 5.2 16 Norte 45 Norte 0 -- -- 73
2020-03-10 05:00:00 4.7 22 Nordeste 40 Norte 0 -- -- 78
2020-03-10 04:00:00 3.5 21 Nordeste 33 Nordeste 0 -- -- 92
2020-03-10 03:00:00 2.9 17 Nordeste 25 Nordeste 0 -- -- 99
2020-03-10 02:00:00 2.7 8 Norte 23 Norte 0 -- -- 100
2020-03-10 01:00:00 2.8 6 Norte 13 Norte 0 -- -- 100
2020-03-10 00:00:00 2.7 5 Nordeste 11 Este 0.4 -- -- 98